Time;durP1;ratioP1;P1;durP2;ratioP2;P2;SDS_P1;SDS_P2;PMS_P1;PMS_P2;Temp;Humidity;BMP_temperature;BMP_pressure;BME280_temperature;BME280_humidity;BME280_pressure;Samples;Min_cycle;Max_cycle;Signal;HPM_P1;HPM_P2
2022/12/20 00:01:35;;;;;;;6.80;3.35;;;;;;;-3.43;67.56;103459.81;1963210;73;21059;-60
2022/12/20 00:04:05;;;;;;;10.50;4.33;;;;;;;-3.45;67.69;103459.20;1963340;73;21085;-61
2022/12/20 00:06:37;;;;;;;11.97;5.75;;;;;;;-3.48;67.72;103460.33;1963311;73;21012;-62
2022/12/20 00:09:08;;;;;;;12.35;5.10;;;;;;;-3.52;67.82;103451.11;1963370;73;21419;-58
2022/12/20 00:11:39;;;;;;;7.17;3.65;;;;;;;-3.52;68.05;103456.66;1963250;73;21024;-58
2022/12/20 00:14:09;;;;;;;10.05;4.87;;;;;;;-3.58;68.27;103446.87;1963359;73;21032;-58
2022/12/20 00:16:39;;;;;;;10.80;3.98;;;;;;;-3.58;68.27;103446.87;1963150;73;21564;-58
2022/12/20 00:19:08;;;;;;;11.05;4.55;;;;;;;-3.56;68.02;103445.66;1963197;73;21499;-58
2022/12/20 00:21:37;;;;;;;13.35;5.42;;;;;;;-3.57;68.05;103450.33;1963322;73;21047;-58
2022/12/20 00:24:07;;;;;;;6.15;3.95;;;;;;;-3.60;68.12;103438.12;1963237;73;21028;-58
2022/12/20 00:26:36;;;;;;;1.85;1.70;;;;;;;-3.63;68.15;103448.64;1963330;73;21024;-58
2022/12/20 00:29:06;;;;;;;14.43;4.42;;;;;;;-3.65;68.19;103438.27;1963081;73;21111;-58
2022/12/20 00:31:35;;;;;;;9.80;5.25;;;;;;;-3.65;68.25;103436.98;1963175;73;21552;-58
2022/12/20 00:34:04;;;;;;;8.15;3.72;;;;;;;-3.65;68.31;103438.27;1963134;73;21060;-58
2022/12/20 00:36:34;;;;;;;9.58;4.08;;;;;;;-3.65;68.44;103431.83;1957372;73;21530;-58
2022/12/20 00:39:03;;;;;;;12.13;5.08;;;;;;;-3.61;68.41;103422.61;1953058;73;21566;-58
2022/12/20 00:41:34;;;;;;;8.30;3.67;;;;;;;-3.60;68.51;103423.96;1953032;73;21464;-57
2022/12/20 00:44:04;;;;;;;9.53;3.83;;;;;;;-3.57;68.58;103424.16;1953032;73;21141;-59
2022/12/20 00:46:34;;;;;;;6.83;4.15;;;;;;;-3.55;68.53;103423.86;1952884;73;21596;-58
2022/12/20 00:49:03;;;;;;;8.10;3.55;;;;;;;-3.56;68.44;103427.63;1953016;73;21044;-59
2022/12/20 00:51:32;;;;;;;9.30;3.80;;;;;;;-3.57;68.62;103424.16;1952844;73;21122;-59
2022/12/20 00:54:01;;;;;;;9.85;4.05;;;;;;;-3.54;68.66;103420.88;1952894;73;21080;-58
2022/12/20 00:56:30;;;;;;;2.58;1.77;;;;;;;-3.52;68.56;103409.89;1952993;73;21138;-59
2022/12/20 00:58:59;;;;;;;4.83;2.58;;;;;;;-3.52;68.56;103409.89;1952876;73;21065;-58
2022/12/20 01:01:30;;;;;;;5.67;4.08;;;;;;;-3.51;68.74;103401.76;1921592;73;21459;-59
2022/12/20 01:04:00;;;;;;;13.35;5.50;;;;;;;-3.50;68.75;103407.02;1952997;73;20993;-55
2022/12/20 01:06:29;;;;;;;10.28;4.15;;;;;;;-3.50;68.77;103409.59;1952792;73;21491;-57
2022/12/20 01:08:59;;;;;;;8.68;3.98;;;;;;;-3.50;68.80;103398.40;1952888;73;21456;-56
2022/12/20 01:11:35;;;;;;;10.18;3.42;;;;;;;-3.51;68.86;103398.77;1952958;73;21025;-56
2022/12/20 01:14:06;;;;;;;5.30;3.05;;;;;;;-3.52;68.85;103404.74;1952861;73;21041;-55
2022/12/20 01:16:38;;;;;;;8.50;4.90;;;;;;;-3.55;68.79;103408.41;1951545;73;21028;-57
2022/12/20 01:19:09;;;;;;;14.18;6.50;;;;;;;-3.56;68.76;103406.64;1951131;73;21092;-56
2022/12/20 01:21:43;;;;;;;9.93;4.53;;;;;;;-3.58;68.72;103403.09;1952893;73;21013;-56
2022/12/20 01:24:09;;;;;;;5.75;2.47;;;;;;;-3.58;68.72;103403.09;1951685;73;21033;-56
2022/12/20 01:26:39;;;;;;;11.93;5.00;;;;;;;-3.63;68.78;103404.48;1952867;73;21110;-56
2022/12/20 01:29:07;;;;;;;6.45;3.12;;;;;;;-3.60;68.90;103405.05;1952788;73;21025;-56
2022/12/20 01:31:36;;;;;;;7.47;4.35;;;;;;;-3.61;68.87;103402.89;1952684;73;21029;-58
2022/12/20 01:34:05;;;;;;;11.48;6.30;;;;;;;-3.61;68.86;103399.43;1952878;73;21471;-58
2022/12/20 01:36:39;;;;;;;12.58;4.50;;;;;;;-3.62;68.82;103398.52;1952794;73;21096;-56
2022/12/20 01:39:10;;;;;;;9.50;3.22;;;;;;;-3.61;68.89;103395.56;1953033;73;21048;-56
2022/12/20 01:41:41;;;;;;;3.40;2.72;;;;;;;-3.62;68.89;103389.50;1952789;73;21061;-56
2022/12/20 01:44:22;;;;;;;9.33;4.30;;;;;;;-3.69;68.88;103383.48;1952777;73;21106;-56
2022/12/20 01:46:53;;;;;;;10.60;4.62;;;;;;;-3.69;68.88;103383.48;1952873;73;21060;-56
2022/12/20 01:49:27;;;;;;;10.80;3.62;;;;;;;-3.73;68.86;103390.53;1953042;73;21036;-56
2022/12/20 01:51:59;;;;;;;14.07;5.50;;;;;;;-3.73;68.86;103390.53;1952870;73;20997;-56
2022/12/20 01:54:33;;;;;;;8.55;4.25;;;;;;;-3.72;68.87;103396.19;1952438;73;21024;-57
2022/12/20 01:57:04;;;;;;;11.38;4.85;;;;;;;-3.73;68.96;103390.12;1952865;73;21161;-56
2022/12/20 01:59:37;;;;;;;7.12;2.85;;;;;;;-3.74;69.01;103393.91;1951232;73;21103;-56
2022/12/20 02:02:09;;;;;;;4.70;1.92;;;;;;;-3.75;68.95;103398.55;1952804;73;21146;-56
2022/12/20 02:04:38;;;;;;;4.72;2.17;;;;;;;-3.75;68.95;103398.55;1953028;73;21527;-56
2022/12/20 02:07:08;;;;;;;6.97;3.00;;;;;;;-3.78;68.99;103393.20;1952739;73;21111;-60
2022/12/20 02:09:38;;;;;;;8.98;3.45;;;;;;;-3.79;68.99;103402.63;1952938;73;21032;-59
2022/12/20 02:12:21;;;;;;;2.40;2.15;;;;;;;-3.79;69.08;103394.02;1952817;73;21047;-56
2022/12/20 02:15:05;;;;;;;9.28;4.58;;;;;;;-3.80;68.80;103392.22;1953153;73;21033;-56
2022/12/20 02:18:01;;;;;;;6.47;3.20;;;;;;;-3.80;69.11;103403.80;1953385;72;21907;-56
2022/12/20 02:20:45;;;;;;;11.93;4.25;;;;;;;-3.83;69.12;103400.66;1952844;73;21550;-53
2022/12/20 02:23:33;;;;;;;7.45;4.03;;;;;;;-3.84;69.04;103404.42;1953010;73;21064;-54
2022/12/20 02:26:17;;;;;;;11.12;4.15;;;;;;;-3.88;69.07;103402.92;1952935;73;21095;-54
2022/12/20 02:29:03;;;;;;;;;;;;;;;-3.90;69.06;103408.38;1955753;73;21051;-57
2022/12/20 02:31:35;;;;;;;10.15;5.20;;;;;;;-3.92;68.98;103413.83;1949975;73;20142;-58
2022/12/20 02:34:06;;;;;;;14.83;6.37;;;;;;;-4.02;68.88;103419.20;1952161;73;21119;-58
2022/12/20 02:36:35;;;;;;;17.70;6.20;;;;;;;-4.09;68.82;103422.17;1952919;73;21012;-57
2022/12/20 02:39:05;;;;;;;10.80;5.17;;;;;;;-4.18;68.82;103416.44;1969770;73;21498;-58
2022/12/20 02:41:37;;;;;;;20.43;7.97;;;;;;;-4.37;68.72;103413.96;1969740;73;21051;-58
2022/12/20 02:46:58;;;;;;;12.90;4.90;;;;;;;-4.40;69.06;103430.47;1969768;73;21529;-58
2022/12/20 02:49:29;;;;;;;16.65;5.45;;;;;;;-4.51;69.18;103432.73;1938006;74;21034;-58
2022/12/20 02:52:01;;;;;;;20.57;7.95;;;;;;;-4.54;69.30;103428.66;1968570;73;21023;-58
2022/12/20 02:54:30;;;;;;;14.15;6.22;;;;;;;-4.60;69.35;103426.98;1969865;73;21408;-59
2022/12/20 02:57:28;;;;;;;16.65;8.23;;;;;;;-4.68;69.22;103426.48;1969837;73;21474;-59
2022/12/20 03:00:10;;;;;;;18.42;8.73;;;;;;;-4.74;69.47;103428.25;1942960;73;21510;-59
2022/12/20 03:05:28;;;;;;;19.67;6.42;;;;;;;-4.74;69.53;103431.19;1969050;73;21023;-59
2022/12/20 03:07:59;;;;;;;11.80;5.87;;;;;;;-4.82;69.68;103429.40;1969872;73;21126;-59
2022/12/20 03:10:28;;;;;;;13.80;5.65;;;;;;;-4.84;69.75;103424.55;1938045;74;21140;-57
2022/12/20 03:12:57;;;;;;;16.77;7.22;;;;;;;-4.84;69.77;103415.55;1969748;73;21043;-57
2022/12/20 03:15:26;;;;;;;19.85;7.28;;;;;;;-4.82;69.64;103416.55;1969801;73;21051;-57
2022/12/20 03:17:56;;;;;;;25.43;9.03;;;;;;;-4.82;69.75;103425.54;1937942;74;21034;-57
2022/12/20 03:20:25;;;;;;;16.17;6.90;;;;;;;-4.85;69.84;103422.75;1969927;73;21102;-57
2022/12/20 03:22:54;;;;;;;19.70;8.40;;;;;;;-4.88;69.88;103418.72;1969773;73;21079;-57
2022/12/20 03:25:23;;;;;;;18.85;7.22;;;;;;;-4.89;69.90;103423.34;1969402;73;21039;-57
2022/12/20 03:27:52;;;;;;;18.60;6.55;;;;;;;-4.90;69.97;103421.17;1959920;73;21024;-57
2022/12/20 03:30:23;;;;;;;20.05;7.50;;;;;;;-4.90;69.97;103429.29;1967125;73;21130;-58
2022/12/20 03:32:51;;;;;;;19.02;8.18;;;;;;;-4.91;69.98;103424.92;1934779;74;21034;-57
2022/12/20 03:35:21;;;;;;;15.23;8.05;;;;;;;-4.93;69.95;103425.22;1969744;73;21137;-57
2022/12/20 03:37:49;;;;;;;22.80;9.95;;;;;;;-4.95;69.95;103435.39;1970467;73;21067;-51
2022/12/20 03:40:19;;;;;;;16.07;6.37;;;;;;;-4.97;70.10;103437.37;1972715;73;21063;-50
2022/12/20 03:42:48;;;;;;;18.27;7.97;;;;;;;-4.99;70.21;103433.81;1972708;73;21019;-52
2022/12/20 03:45:17;;;;;;;20.10;8.83;;;;;;;-5.02;70.14;103429.73;1937287;74;21034;-55
2022/12/20 03:47:46;;;;;;;23.45;8.40;;;;;;;-5.01;70.27;103431.53;1937406;74;21489;-55
2022/12/20 03:50:14;;;;;;;18.35;8.40;;;;;;;-5.04;70.39;103429.22;1933716;74;21179;-55
2022/12/20 03:52:44;;;;;;;25.57;8.18;;;;;;;-5.04;70.37;103433.08;1937189;74;21317;-57
2022/12/20 03:55:13;;;;;;;15.98;7.58;;;;;;;-5.07;70.55;103425.18;1937321;74;21117;-57
2022/12/20 03:57:43;;;;;;;18.57;7.75;;;;;;;-5.05;70.46;103436.45;1936656;74;21580;-54
2022/12/20 04:00:26;;;;;;;18.62;6.92;;;;;;;-5.10;70.54;103435.23;1925114;74;21557;-54
2022/12/20 04:02:56;;;;;;;23.73;7.12;;;;;;;-5.10;70.54;103435.23;1936982;74;21102;-55
2022/12/20 04:05:26;;;;;;;15.48;6.85;;;;;;;-5.06;70.55;103435.94;1937345;74;21062;-54
2022/12/20 04:07:54;;;;;;;17.73;8.15;;;;;;;-5.06;70.43;103426.94;1937497;74;21110;-53
2022/12/20 04:10:23;;;;;;;24.30;8.50;;;;;;;-5.03;70.37;103439.13;1937563;74;21086;-53
2022/12/20 04:12:52;;;;;;;20.97;7.90;;;;;;;-5.04;70.38;103439.50;1937578;74;21140;-53
2022/12/20 04:15:21;;;;;;;21.37;9.70;;;;;;;-5.05;70.46;103436.45;1918175;74;21497;-54
2022/12/20 04:17:51;;;;;;;23.98;9.08;;;;;;;-5.08;70.55;103422.09;1921590;74;21137;-58
2022/12/20 04:20:20;;;;;;;17.98;7.60;;;;;;;-5.07;70.63;103430.31;1933908;74;21068;-58
2022/12/20 04:22:53;;;;;;;25.55;10.38;;;;;;;-5.09;70.63;103434.47;1896707;75;21114;-57
2022/12/20 04:25:22;;;;;;;17.15;8.20;;;;;;;-5.10;70.67;103435.64;1919385;75;21104;-57
2022/12/20 04:27:51;;;;;;;27.07;9.55;;;;;;;-5.11;70.71;103439.89;1937634;74;21042;-58
2022/12/20 04:30:21;;;;;;;18.02;9.58;;;;;;;-5.14;70.77;103437.51;1937529;74;21036;-59
2022/12/20 04:32:53;;;;;;;25.15;9.85;;;;;;;-5.14;70.86;103443.53;1899118;75;21097;-59
2022/12/20 04:35:21;;;;;;;27.90;10.82;;;;;;;-5.12;70.85;103444.52;1923975;74;21086;-54
2022/12/20 04:37:52;;;;;;;20.27;9.30;;;;;;;-5.10;70.72;103441.66;1937559;74;21149;-56
2022/12/20 04:40:21;;;;;;;16.52;7.05;;;;;;;-5.12;70.72;103449.66;1937122;74;21099;-56
2022/12/20 04:42:52;;;;;;;40.12;9.45;;;;;;;-5.11;70.65;103450.55;1936655;74;21066;-57
2022/12/20 04:45:20;;;;;;;18.12;8.28;;;;;;;-5.11;70.54;103446.31;1937610;74;21063;-58
2022/12/20 04:47:49;;;;;;;25.30;9.30;;;;;;;-5.11;70.46;103451.83;1937437;74;21126;-55
2022/12/20 04:50:24;;;;;;;26.30;9.88;;;;;;;-5.12;70.39;103456.08;1936885;74;21075;-55
2022/12/20 04:55:41;;;;;;;30.82;9.80;;;;;;;-5.12;70.39;103453.92;1937520;74;21470;-51
2022/12/20 04:58:09;;;;;;;22.55;9.18;;;;;;;-5.12;70.25;103453.92;1937410;74;21569;-56
2022/12/20 05:00:40;;;;;;;14.45;8.08;;;;;;;-5.13;70.21;103456.85;1937362;74;21071;-55
2022/12/20 05:03:10;;;;;;;34.33;9.70;;;;;;;-5.13;70.19;103456.85;1934790;74;21183;-56
2022/12/20 05:05:39;;;;;;;36.28;7.30;;;;;;;-5.13;70.13;103456.85;1937492;74;21109;-57
2022/12/20 05:08:08;;;;;;;24.25;9.40;;;;;;;-5.14;70.11;103458.95;1937472;74;21079;-57
2022/12/20 05:10:37;;;;;;;27.27;9.63;;;;;;;-5.13;70.18;103446.98;1937467;74;21069;-58
2022/12/20 05:13:07;;;;;;;45.45;9.90;;;;;;;-5.09;69.99;103448.97;1937552;74;21040;-58
2022/12/20 05:15:37;;;;;;;29.25;9.00;;;;;;;-5.09;69.99;103448.97;1937012;74;21103;-57
2022/12/20 05:18:06;;;;;;;38.58;10.13;;;;;;;-5.08;70.34;103445.22;1937607;74;21024;-57
2022/12/20 05:20:37;;;;;;;22.50;9.75;;;;;;;-5.05;70.49;103453.55;1935980;74;21498;-57
2022/12/20 05:28:43;;;;;;;18.73;6.97;;;;;;;-4.56;70.60;103470.10;1937629;74;21036;-57
2022/12/20 05:31:13;;;;;;;21.87;10.13;;;;;;;-4.24;70.41;103468.77;1937388;74;21126;-58
2022/12/20 05:33:42;;;;;;;20.30;8.00;;;;;;;-3.89;70.21;103404.14;1937379;74;21099;-57
2022/12/20 05:36:11;;;;;;;28.50;10.72;;;;;;;-3.52;69.86;103468.26;1937649;74;21483;-57
2022/12/20 05:38:40;;;;;;;24.87;10.43;;;;;;;-3.06;69.32;103472.38;1937417;74;21084;-58
2022/12/20 05:41:10;;;;;;;23.55;8.90;;;;;;;-2.64;68.54;103449.93;1933060;74;21047;-57
2022/12/20 05:43:39;;;;;;;22.42;9.15;;;;;;;-2.16;67.84;103453.97;1933961;74;21059;-57
2022/12/20 05:46:09;;;;;;;25.75;10.00;;;;;;;-1.66;67.31;103444.31;1934022;74;21028;-57
2022/12/20 05:48:39;;;;;;;29.65;9.93;;;;;;;-1.08;66.37;103449.53;1931782;74;21074;-57
2022/12/20 05:51:09;;;;;;;21.17;9.60;;;;;;;-0.55;65.69;103453.98;1933971;74;21592;-57
2022/12/20 05:53:39;;;;;;;25.48;10.18;;;;;;;-0.04;64.94;103450.90;1930621;74;21461;-57
2022/12/20 05:56:09;;;;;;;36.50;11.80;;;;;;;0.35;64.41;103452.69;1933910;74;21032;-57
2022/12/20 05:58:39;;;;;;;52.03;15.32;;;;;;;0.70;64.09;103445.64;1933774;74;21586;-54
2022/12/20 06:01:09;;;;;;;30.92;10.45;;;;;;;1.05;64.12;103448.53;1933926;74;21032;-54
2022/12/20 06:03:39;;;;;;;37.53;10.95;;;;;;;1.53;64.00;103436.25;1933831;74;21118;-53
2022/12/20 06:06:09;;;;;;;18.87;7.35;;;;;;;1.96;63.54;103442.34;1933230;74;21487;-49
2022/12/20 06:08:38;;;;;;;24.85;9.78;;;;;;;2.39;63.08;103444.02;1933908;74;21114;-48
2022/12/20 06:11:09;;;;;;;25.60;10.95;;;;;;;2.73;62.47;103443.96;1933232;74;21235;-58
2022/12/20 06:13:39;;;;;;;25.25;8.55;;;;;;;3.17;62.13;103447.28;1931540;74;21083;-58
2022/12/20 06:16:10;;;;;;;30.80;9.55;;;;;;;3.66;61.51;103443.32;1934006;74;21132;-58
2022/12/20 06:18:38;;;;;;;24.25;9.15;;;;;;;4.12;61.00;103440.01;1933891;74;21035;-58
2022/12/20 06:21:07;;;;;;;28.77;9.43;;;;;;;4.54;60.31;103440.84;1933839;74;21068;-58
2022/12/20 06:23:36;;;;;;;29.02;9.93;;;;;;;4.97;59.84;103443.36;1933894;74;21573;-58
2022/12/20 06:26:08;;;;;;;30.55;11.20;;;;;;;5.30;59.32;103439.89;1933315;74;21079;-58
2022/12/20 06:28:43;;;;;;;24.00;9.33;;;;;;;5.62;58.66;103439.81;1933164;74;21125;-58
2022/12/20 06:31:10;;;;;;;29.55;10.70;;;;;;;6.04;58.28;103435.19;1933372;74;21133;-58
2022/12/20 06:37:21;;;;;;;26.65;8.43;;;;;;;6.71;56.71;103424.00;1933806;74;21076;-58
2022/12/20 06:39:50;;;;;;;24.52;9.50;;;;;;;7.17;56.26;103425.28;1933854;74;21079;-57
2022/12/20 06:42:19;;;;;;;31.82;10.63;;;;;;;7.32;55.39;103420.73;1933664;74;21145;-58
2022/12/20 06:44:49;;;;;;;30.97;11.38;;;;;;;7.51;54.94;103420.64;1933998;74;21563;-57
2022/12/20 06:47:17;;;;;;;35.70;11.43;;;;;;;7.66;54.38;103430.06;1933851;74;21118;-57
2022/12/20 06:49:46;;;;;;;26.02;9.95;;;;;;;7.86;53.61;103426.45;1933868;74;21068;-57
2022/12/20 06:52:19;;;;;;;19.60;8.90;;;;;;;8.02;53.05;103427.56;1933176;74;21059;-57
2022/12/20 06:54:50;;;;;;;24.82;9.63;;;;;;;8.13;52.26;103427.70;1933401;74;21125;-58
2022/12/20 06:57:20;;;;;;;18.85;7.78;;;;;;;8.41;51.59;103425.03;1933573;74;21059;-56
2022/12/20 06:59:50;;;;;;;13.60;5.83;;;;;;;8.61;51.35;103421.39;1934036;74;21093;-55
2022/12/20 07:02:18;;;;;;;14.03;6.35;;;;;;;8.83;50.72;103424.23;1935694;73;21110;-57
2022/12/20 07:04:47;;;;;;;19.25;8.70;;;;;;;8.82;50.01;103418.11;1933954;74;21012;-56
2022/12/20 07:07:16;;;;;;;16.48;7.17;;;;;;;8.72;48.35;103416.23;1933752;74;21149;-57
2022/12/20 07:09:44;;;;;;;8.60;5.00;;;;;;;8.65;47.42;103413.08;1933806;74;21028;-56
2022/12/20 07:12:13;;;;;;;13.95;7.55;;;;;;;8.59;47.38;103411.70;1933976;74;21095;-55
2022/12/20 07:14:42;;;;;;;22.45;10.82;;;;;;;8.70;47.12;103407.45;1934093;74;21044;-55
2022/12/20 07:17:11;;;;;;;14.00;5.50;;;;;;;8.81;46.24;103408.45;1933860;74;21040;-57
2022/12/20 07:19:40;;;;;;;15.72;6.78;;;;;;;8.83;45.65;103405.84;1933778;74;21043;-57
2022/12/20 07:22:09;;;;;;;6.75;3.37;;;;;;;8.98;45.25;103410.38;1933747;74;21040;-57
2022/12/20 07:24:38;;;;;;;12.45;5.08;;;;;;;9.03;44.30;103407.38;1933818;74;21130;-53
2022/12/20 07:27:07;;;;;;;27.05;8.05;;;;;;;9.05;43.81;103418.78;1933894;74;21126;-51
2022/12/20 07:29:39;;;;;;;13.55;5.15;;;;;;;8.99;43.40;103406.91;1933853;74;21083;-53
2022/12/20 07:32:06;;;;;;;29.15;6.15;;;;;;;9.17;43.30;103411.03;1933834;74;21107;-53
2022/12/20 07:34:37;;;;;;;14.58;6.10;;;;;;;9.11;42.65;103404.81;1933737;74;21188;-52
2022/12/20 07:37:07;;;;;;;11.57;5.00;;;;;;;9.41;42.97;103402.92;1933819;74;21304;-54
2022/12/20 07:39:36;;;;;;;16.95;8.38;;;;;;;9.72;42.64;103400.50;1934020;74;21091;-54
2022/12/20 07:42:05;;;;;;;21.48;3.42;;;;;;;9.92;42.46;103392.30;1921144;74;21084;-49
2022/12/20 07:44:36;;;;;;;19.55;8.30;;;;;;;10.19;41.78;103389.39;1916241;75;21058;-55
2022/12/20 07:47:05;;;;;;;12.18;5.03;;;;;;;10.13;41.19;103387.61;1917792;75;21116;-49
2022/12/20 07:49:34;;;;;;;24.82;6.55;;;;;;;10.26;40.93;103379.34;1917877;75;21467;-49
2022/12/20 07:52:04;;;;;;;16.67;7.67;;;;;;;10.42;40.78;103388.20;1917842;75;21095;-51
2022/12/20 07:54:36;;;;;;;16.97;6.62;;;;;;;10.78;40.75;103379.53;1917899;75;21094;-50
2022/12/20 07:57:07;;;;;;;7.28;3.92;;;;;;;11.13;40.38;103380.03;1917332;75;21036;-50
2022/12/20 07:59:42;;;;;;;12.00;3.22;;;;;;;11.16;39.21;103368.63;1917886;75;21024;-49
2022/12/20 08:02:13;;;;;;;20.85;7.22;;;;;;;11.03;38.67;103361.14;1917867;75;21024;-50
2022/12/20 08:04:43;;;;;;;13.38;3.77;;;;;;;10.48;39.73;103347.86;1917598;75;21061;-49
2022/12/20 08:07:12;;;;;;;17.55;6.33;;;;;;;10.32;39.49;103350.42;1917855;75;21428;-50
2022/12/20 08:09:43;;;;;;;11.80;5.05;;;;;;;10.81;39.34;103349.24;1918009;75;21491;-52
2022/12/20 08:12:15;;;;;;;12.60;6.10;;;;;;;10.92;38.05;103344.41;1917793;75;21112;-48
2022/12/20 08:14:44;;;;;;;12.75;5.47;;;;;;;11.22;38.33;103345.33;1917831;75;21041;-55
2022/12/20 08:17:13;;;;;;;13.08;4.08;;;;;;;11.44;38.22;103338.28;1917853;75;21471;-54
2022/12/20 08:19:41;;;;;;;9.90;4.55;;;;;;;11.68;38.13;103341.32;1917969;75;21072;-54
2022/12/20 08:22:10;;;;;;;13.60;6.35;;;;;;;11.43;37.08;103337.38;1917801;75;21119;-56
2022/12/20 08:24:39;;;;;;;17.00;7.17;;;;;;;11.50;37.47;103335.17;1917912;75;21135;-56
2022/12/20 08:27:08;;;;;;;11.20;4.62;;;;;;;11.85;37.43;103332.03;1917955;75;21119;-56
2022/12/20 08:29:37;;;;;;;10.60;5.62;;;;;;;11.93;36.90;103328.53;1917844;75;21104;-57
2022/12/20 08:32:06;;;;;;;19.27;6.50;;;;;;;11.71;36.58;103331.63;1917844;75;21126;-56
2022/12/20 08:34:35;;;;;;;16.45;6.10;;;;;;;11.76;36.74;103321.05;1917854;75;21045;-56
2022/12/20 08:37:03;;;;;;;11.68;5.55;;;;;;;11.89;36.56;103310.87;1917752;75;21020;-53
2022/12/20 08:39:32;;;;;;;8.45;4.37;;;;;;;12.20;36.35;103305.52;1917803;75;21122;-54
2022/12/20 08:42:01;;;;;;;7.22;3.10;;;;;;;12.56;36.27;103304.89;1917828;74;21068;-55
2022/12/20 08:44:29;;;;;;;11.38;4.08;;;;;;;12.47;35.03;103308.45;1917823;75;21048;-52
2022/12/20 08:46:58;;;;;;;8.85;4.35;;;;;;;12.54;35.10;103298.70;1917834;75;21519;-57
2022/12/20 08:49:27;;;;;;;6.83;3.50;;;;;;;12.56;34.63;103298.28;1917770;75;21041;-57
2022/12/20 08:51:56;;;;;;;8.33;4.72;;;;;;;12.57;34.49;103298.70;1917823;75;21080;-57
2022/12/20 08:54:25;;;;;;;12.00;5.37;;;;;;;12.60;34.50;103296.05;1917845;75;21016;-57
2022/12/20 08:56:53;;;;;;;9.83;4.58;;;;;;;12.91;34.34;103295.80;1917848;75;21040;-57
2022/12/20 08:59:22;;;;;;;14.40;5.40;;;;;;;12.97;34.25;103297.55;1917830;75;21130;-57
2022/12/20 09:01:52;;;;;;;14.30;5.08;;;;;;;13.09;34.04;103287.70;1917774;75;21118;-58
2022/12/20 09:04:21;;;;;;;16.05;5.42;;;;;;;13.20;33.97;103282.77;1917881;75;21539;-57
2022/12/20 09:06:50;;;;;;;7.67;3.80;;;;;;;13.21;33.60;103284.09;1918002;75;21499;-57
2022/12/20 09:09:19;;;;;;;4.65;2.75;;;;;;;13.35;33.49;103280.45;1917841;75;21040;-48
2022/12/20 09:11:48;;;;;;;10.32;4.53;;;;;;;13.31;33.28;103272.54;1917830;75;21056;-52
2022/12/20 09:14:17;;;;;;;7.25;3.95;;;;;;;13.07;32.81;103268.33;1917861;75;21028;-54
2022/12/20 09:16:46;;;;;;;8.48;3.77;;;;;;;12.83;32.50;103258.84;1917726;75;21747;-54
2022/12/20 09:19:16;;;;;;;8.38;3.35;;;;;;;12.78;32.46;103255.81;1917826;75;21059;-57
2022/12/20 09:21:44;;;;;;;9.75;4.60;;;;;;;12.88;32.74;103264.11;1906070;74;21476;-57
2022/12/20 09:24:13;;;;;;;13.22;5.08;;;;;;;13.00;32.46;103263.98;1917015;75;21077;-58
2022/12/20 09:26:42;;;;;;;8.45;4.17;;;;;;;13.27;32.62;103246.11;1896419;75;21112;-57
2022/12/20 09:29:10;;;;;;;10.20;4.55;;;;;;;13.34;32.45;103250.94;1948137;73;21043;-58
2022/12/20 09:31:40;;;;;;;7.55;3.02;;;;;;;13.54;32.18;103241.00;1943842;73;21106;-56
2022/12/20 09:34:10;;;;;;;15.98;6.85;;;;;;;13.49;32.10;103245.46;1917612;75;21522;-50
2022/12/20 09:36:38;;;;;;;10.50;5.55;;;;;;;13.67;32.13;103245.25;1893458;76;21632;-51
2022/12/20 09:39:07;;;;;;;10.13;4.58;;;;;;;13.89;31.92;103231.29;1895316;76;21092;-54
2022/12/20 09:41:42;;;;;;;19.52;6.47;;;;;;;13.77;32.03;103234.09;1930626;73;21061;-57
2022/12/20 09:44:25;;;;;;;12.95;5.60;;;;;;;13.79;32.16;103229.64;1964953;71;21142;-57
2022/12/20 09:47:02;;;;;;;10.40;4.53;;;;;;;14.09;32.04;103231.02;1937917;74;21424;-57
2022/12/20 09:49:34;;;;;;;9.03;4.17;;;;;;;14.41;31.87;103229.66;1955408;73;21030;-57
2022/12/20 09:52:35;;;;;;;9.78;5.05;;;;;;;14.44;31.80;103231.38;1972508;73;21090;-57
2022/12/20 09:55:26;;;;;;;9.50;4.58;;;;;;;14.18;31.67;103223.37;1971976;73;21024;-57
2022/12/20 09:58:03;;;;;;;13.68;6.15;;;;;;;14.15;31.89;103214.16;1969815;73;21105;-55
2022/12/20 10:00:37;;;;;;;9.58;3.58;;;;;;;14.32;31.86;103214.36;1903540;74;21112;-58
2022/12/20 10:03:06;;;;;;;14.90;6.40;;;;;;;14.55;31.62;103205.59;1955378;73;21106;-58
2022/12/20 10:05:43;;;;;;;10.63;5.97;;;;;;;14.69;31.73;103196.10;1933871;74;21034;-58
2022/12/20 10:08:18;;;;;;;12.90;5.33;;;;;;;14.64;31.45;103194.88;1932263;74;21506;-56
2022/12/20 10:10:52;;;;;;;12.15;5.15;;;;;;;14.73;31.53;103194.27;1934664;74;21031;-56
2022/12/20 10:13:42;;;;;;;12.20;5.30;;;;;;;14.47;31.35;103188.92;1974968;72;21005;-57
2022/12/20 10:16:35;;;;;;;13.32;5.12;;;;;;;14.18;31.51;103186.27;1951707;73;21016;-54
2022/12/20 10:19:27;;;;;;;14.18;5.80;;;;;;;14.07;31.88;103178.94;1951713;73;21099;-54
2022/12/20 10:22:14;;;;;;;15.25;6.22;;;;;;;13.37;32.96;103175.46;1951174;73;21095;-55
2022/12/20 10:24:45;;;;;;;15.78;5.78;;;;;;;13.24;33.04;103174.70;1982333;72;21039;-56
2022/12/20 10:27:19;;;;;;;13.50;5.42;;;;;;;13.48;32.04;103166.52;1988418;72;21125;-56
2022/12/20 10:29:50;;;;;;;17.77;5.80;;;;;;;13.67;31.54;103159.66;1988541;72;21101;-57
2022/12/20 10:32:22;;;;;;;8.00;4.40;;;;;;;13.64;31.19;103158.37;1988597;72;21125;-53
2022/12/20 10:34:59;;;;;;;11.93;5.70;;;;;;;13.56;31.15;103154.96;1968649;72;21027;-49
2022/12/20 10:37:28;;;;;;;20.88;7.45;;;;;;;13.55;31.09;103146.58;1943776;73;21033;-53
2022/12/20 10:39:57;;;;;;;14.03;6.33;;;;;;;13.39;31.24;103145.46;1950172;73;21448;-61
2022/12/20 10:42:42;;;;;;;14.75;5.85;;;;;;;13.37;31.25;103140.64;1947966;73;21177;-62
2022/12/20 10:45:19;;;;;;;15.20;6.50;;;;;;;13.50;31.39;103132.96;1960697;73;21060;-59
2022/12/20 10:47:50;;;;;;;10.18;5.00;;;;;;;13.65;31.19;103137.17;1962166;73;21029;-61
2022/12/20 10:50:22;;;;;;;11.55;5.22;;;;;;;13.64;31.13;103133.22;1965060;72;21066;-58
2022/12/20 10:53:05;;;;;;;16.82;5.83;;;;;;;13.56;31.16;103129.36;1969655;72;21050;-53
2022/12/20 10:55:40;;;;;;;15.03;5.62;;;;;;;13.45;31.20;103125.52;1969933;72;21024;-57
2022/12/20 10:58:15;;;;;;;21.02;7.72;;;;;;;13.63;31.26;103122.19;1959430;72;21075;-59
2022/12/20 11:00:45;;;;;;;8.73;4.03;;;;;;;13.67;31.23;103122.59;1960683;72;21439;-57
2022/12/20 11:03:23;;;;;;;8.50;3.95;;;;;;;13.64;31.13;103127.47;1963131;73;21498;-59
2022/12/20 11:06:02;;;;;;;14.45;5.12;;;;;;;13.22;31.15;103116.96;1962197;72;21674;-58
2022/12/20 11:08:33;;;;;;;11.43;5.22;;;;;;;12.96;31.41;103112.84;1956566;73;21040;-58
2022/12/20 11:11:19;;;;;;;13.43;5.95;;;;;;;12.92;31.52;103109.81;1961034;73;21232;-60
2022/12/20 11:13:49;;;;;;;14.85;5.25;;;;;;;13.18;31.50;103115.25;1929833;73;21143;-62
2022/12/20 11:16:30;;;;;;;13.32;5.85;;;;;;;12.59;32.02;103110.59;1957811;73;21090;-65
2022/12/20 11:19:05;;;;;;;12.63;5.45;;;;;;;12.50;32.26;103104.06;1948277;73;21728;-60
2022/12/20 11:21:39;;;;;;;13.18;6.03;;;;;;;12.86;31.95;103102.83;1958780;72;21024;-61
2022/12/20 11:24:32;;;;;;;12.28;5.67;;;;;;;13.04;31.72;103092.50;1957430;73;21075;-62
2022/12/20 11:27:21;;;;;;;12.37;4.55;;;;;;;13.18;31.65;103098.05;1956443;73;21031;-58
2022/12/20 11:29:56;;;;;;;17.40;5.10;;;;;;;12.85;31.67;103088.30;1946297;73;21513;-60
2022/12/20 11:32:44;;;;;;;10.43;4.90;;;;;;;12.60;31.93;103079.31;1903541;73;21056;-66
2022/12/20 11:35:16;;;;;;;11.03;4.97;;;;;;;12.27;32.08;103068.17;1957584;73;21075;-60
2022/12/20 11:38:02;;;;;;;11.55;5.20;;;;;;;12.16;32.42;103074.00;1955956;73;20997;-60
2022/12/20 11:40:46;;;;;;;13.15;5.37;;;;;;;11.80;32.69;103061.47;1956294;73;21064;-60
2022/12/20 11:43:26;;;;;;;12.20;5.47;;;;;;;11.60;33.13;103069.55;1937093;72;21034;-61
2022/12/20 11:46:04;;;;;;;17.23;5.55;;;;;;;11.36;33.52;103063.52;1939294;73;21005;-64
2022/12/20 11:48:50;;;;;;;13.28;5.42;;;;;;;11.25;33.83;103059.16;1947772;73;21036;-60
2022/12/20 11:51:31;;;;;;;11.65;5.00;;;;;;;10.98;34.07;103049.18;1939552;72;21580;-62
2022/12/20 11:54:05;;;;;;;8.80;3.95;;;;;;;10.61;34.50;103049.30;1938657;73;21566;-63
2022/12/20 11:56:40;;;;;;;9.45;3.95;;;;;;;10.04;35.01;103056.77;1871752;73;21044;-62
2022/12/20 11:59:20;;;;;;;12.37;5.47;;;;;;;9.61;35.49;103056.73;1943503;72;21009;-62